Hlavní strana
METAR-TAF:

METAR-TAF

Letiště :

Chinandega, Nikaragua

zeměpisná šířka: 12-38N, zeměpisná délka: 087-08W, výška: 53 m

Aktuální stav počasí

Zpráva byla vytvořena před 2 hodinami a 56 minutami, v 23:00 UTC
Jižní vítr 4 kt
Teplota 30°C
Vlhkost vzduchu 62%
Tlak 1010 hPa
Viditelnost 10 km a více
Skoro jasno ve výšce 2500 ft
Polojasno ve výšce 30000 ft

METAR: MNCH 252300Z 18004KT 9999 FEW025 SCT300 30/22 Q1010

Čas: 19:56 (01:56 UTC)


TAF: chybějící

Stav a předpovědi počasí z více než 4 000 letišť (zprávy METAR a TAF).

Červené a žluté tečky na mapě představují dostupné meteorologické stanice.

Když kurzor umístíte na tečku, zobrazí se název stanice.

Pak kliknutím zobrazíte stav a předpověď počasí.

Chcete-li změnit mapu, kliknutím na zelené tlačítko se znaménkem +mapu přiblížíte, kliknutím na zelené tlačítko se znaménkem – mapu oddálíte a kliknutím na zelené šipky přejdete na sousední mapy.


METAR-TAF: